Time;durP1;ratioP1;P1;durP2;ratioP2;P2;SDS_P1;SDS_P2;PMS_P1;PMS_P2;Temp;Humidity;BMP_temperature;BMP_pressure;BME280_temperature;BME280_humidity;BME280_pressure;Samples;Min_cycle;Max_cycle;Signal;HPM_P1;HPM_P2
2022/08/08 00:08:55;;;;;;;;;;;;;;;;;;;;;
2022/08/08 03:06:06;;;;;;;;;;;;;;;10.27;100.00;100088.06;6219605;22;19990;-86
2022/08/08 03:08:41;;;;;;;;;;;;;;;10.21;100.00;100093.63;6244971;23;19920;-94
2022/08/08 03:11:12;;;;;;;;;;;;;;;10.40;100.00;100085.88;6245553;23;19920;-90
2022/08/08 03:13:56;;;;;;;;;;;;;;;10.36;100.00;100087.78;6246377;23;19961;-92
2022/08/08 03:16:21;;;;;;;;;;;;;;;10.26;100.00;100083.72;6250397;23;19912;-93
2022/08/08 03:18:53;;;;;;;;;;;;;;;10.36;100.00;100090.44;6248377;23;19920;-91
2022/08/08 03:21:18;;;;;;;;;;;;;;;10.41;100.00;100097.34;6244369;23;19916;-86
2022/08/08 03:23:43;;;;;;;;;;;;;;;10.31;100.00;100086.22;6245246;23;20323;-91
2022/08/08 03:26:08;;;;;;;;;;;;;;;10.42;100.00;100088.47;6219139;23;20002;-92
2022/08/08 03:28:46;;;;;;;;;;;;;;;10.48;100.00;100086.47;6248615;23;19911;-94
2022/08/08 03:33:55;;;;;;;;;;;;;;;10.35;100.00;100090.47;6254730;23;20369;-95
2022/08/08 03:36:22;;;;;;;;;;;;;;;10.52;100.00;100087.22;6260186;23;19931;-94
2022/08/08 03:38:48;;;;;;;;;;;;;;;10.43;100.00;100088.41;6257338;23;19926;-94
2022/08/08 03:41:13;;;;;;;;;;;;;;;10.43;100.00;100087.56;6263728;23;19934;-96
2022/08/08 03:43:38;;;;;;;;;;;;;;;10.60;100.00;100090.44;6256302;23;19946;-85
2022/08/08 03:46:04;;;;;;;;;;;;;;;10.49;100.00;100084.69;6247185;23;19918;-85
2022/08/08 03:48:30;;;;;;;;;;;;;;;10.48;100.00;100085.59;6246478;23;19935;-84
2022/08/08 03:50:57;;;;;;;;;;;;;;;10.67;100.00;100091.06;6246471;23;19916;-86
2022/08/08 03:53:25;;;;;;;;;;;;;;;10.45;100.00;100096.28;6248520;23;19934;-90
2022/08/08 03:55:50;;;;;;;;;;;;;;;10.49;100.00;100089.97;6246987;23;19915;-91
2022/08/08 03:58:25;;;;;;;;;;;;;;;10.59;100.00;100091.34;6249506;23;19912;-89
2022/08/08 04:00:54;;;;;;;;;;;;;;;10.53;100.00;100089.81;6246385;23;19915;-83
2022/08/08 04:03:20;;;;;;;;;;;;;;;10.44;100.00;100090.16;6246907;23;19923;-89
2022/08/08 04:05:46;;;;;;;;;;;;;;;10.56;100.00;100096.75;6244419;23;20239;-92
2022/08/08 04:08:16;;;;;;;;;;;;;;;10.43;100.00;100098.16;6246436;23;20381;-86
2022/08/08 07:56:48;;;;;;;;;;;;;;;10.05;100.00;100224.81;6217040;22;19981;-90
2022/08/08 07:59:14;;;;;;;;;;;;;;;10.18;100.00;100227.00;6244485;23;20231;-88
2022/08/08 08:01:44;;;;;;;;;;;;;;;10.25;100.00;100217.06;6219713;23;19911;-89
2022/08/08 08:04:14;;;;;;;;;;;;;;;10.12;100.00;100216.59;6219829;23;19911;-89
2022/08/08 08:06:42;;;;;;;;;;;;;;;10.24;100.00;100219.75;6245366;23;19946;-89
2022/08/08 08:09:11;;;;;;;;;;;;;;;10.29;100.00;100212.50;6245247;23;19955;-89
2022/08/08 08:11:41;;;;;;;;;;;;;;;10.15;100.00;100215.66;6245395;23;20065;-90
2022/08/08 08:14:07;;;;;;;;;;;;;;;10.32;100.00;100213.31;6245005;23;20275;-90
2022/08/08 08:16:34;;;;;;;;;;;;;;;10.27;100.00;100224.94;6245099;23;19962;-89
2022/08/08 08:25:26;;;;;;;;;;;;;;;10.18;100.00;100218.19;6216009;22;19926;-90
2022/08/08 08:27:51;;;;;;;;;;;;;;;10.27;100.00;100231.09;6245083;23;19947;-90
2022/08/08 08:30:17;;;;;;;;;;;;;;;10.12;100.00;100227.19;6218927;22;19942;-91
2022/08/08 08:32:43;;;;;;;;;;;;;;;10.19;100.00;100227.84;6219516;23;19915;-90
2022/08/08 08:35:08;;;;;;;;;;;;;;;10.29;100.00;100229.28;6244975;23;19919;-90
2022/08/08 08:37:34;;;;;;;;;;;;;;;10.12;100.00;100227.19;6246063;23;19912;-92
2022/08/08 08:39:59;;;;;;;;;;;;;;;10.24;100.00;100230.34;6218148;23;19915;-90
2022/08/08 08:42:24;;;;;;;;;;;;;;;10.30;100.00;100228.34;6245061;23;19922;-91
2022/08/08 08:44:50;;;;;;;;;;;;;;;10.14;100.00;100224.50;6219497;23;19918;-91
2022/08/08 08:47:17;;;;;;;;;;;;;;;10.27;100.00;100223.16;6244900;23;20062;-90
2022/08/08 08:49:42;;;;;;;;;;;;;;;10.30;100.00;100225.69;6246428;23;19915;-90
2022/08/08 08:52:09;;;;;;;;;;;;;;;10.17;100.00;100224.41;6219599;23;20365;-90
2022/08/08 08:54:38;;;;;;;;;;;;;;;10.34;100.00;100222.06;6244660;23;19915;-90
2022/08/08 08:57:08;;;;;;;;;;;;;;;10.35;100.00;100212.31;6244477;23;19990;-91
2022/08/08 08:59:38;;;;;;;;;;;;;;;10.22;100.00;100218.94;6219181;23;19911;-90
2022/08/08 09:02:06;;;;;;;;;;;;;;;10.43;100.00;100209.41;6246085;23;19943;-89
2022/08/08 09:04:36;;;;;;;;;;;;;;;10.39;100.00;100207.78;6225176;22;19950;-90
2022/08/08 09:07:05;;;;;;;;;;;;;;;10.27;100.00;100217.00;6237985;23;20219;-91
2022/08/08 09:09:33;;;;;;;;;;;;;;;10.48;100.00;100212.75;6189335;23;19939;-90
2022/08/08 09:12:00;;;;;;;;;;;;;;;10.46;100.00;100214.59;6187503;23;19919;-91
2022/08/08 09:14:25;;;;;;;;;;;;;;;10.33;100.00;100209.72;6188966;23;19912;-90
2022/08/08 09:16:52;;;;;;;;;;;;;;;10.42;100.00;100208.56;6215630;23;19912;-90
2022/08/08 09:19:17;;;;;;;;;;;;;;;10.47;100.00;100208.41;6189080;23;20363;-89
2022/08/08 09:21:44;;;;;;;;;;;;;;;10.42;100.00;100208.56;6188965;23;19912;-90
2022/08/08 09:24:09;;;;;;;;;;;;;;;10.43;100.00;100209.41;6188861;23;19991;-90
2022/08/08 09:26:35;;;;;;;;;;;;;;;10.43;100.00;100206.75;6212597;23;20350;-91
2022/08/08 09:29:00;;;;;;;;;;;;;;;10.30;100.00;100204.50;6214188;23;19966;-90
2022/08/08 09:31:45;;;;;;;;;;;;;;;10.42;100.00;100199.72;6188895;23;19939;-89
2022/08/08 09:36:44;;;;;;;;;;;;;;;10.39;100.00;100205.13;6243263;22;19920;-89
2022/08/08 09:39:10;;;;;;;;;;;;;;;10.32;100.00;100191.22;6244021;23;19912;-90
2022/08/08 09:41:37;;;;;;;;;;;;;;;10.49;100.00;100199.44;6244327;23;19919;-89
2022/08/08 09:47:39;;;;;;;;;;;;;;;;;;;;;
2022/08/08 09:49:48;;;;;;;;;;;;;;;10.50;100.00;100195.91;6230642;23;19922;-91
2022/08/08 09:52:21;;;;;;;;;;;;;;;10.43;100.00;100194.38;6243412;23;19911;-90
2022/08/08 09:57:59;;;;;;;;;;;;;;;10.34;100.00;100198.22;6183478;22;19926;-89
2022/08/08 10:00:30;;;;;;;;;;;;;;;10.47;100.00;100195.16;6218552;23;22435;-90
2022/08/08 10:03:38;;;;;;;;;;;;;;;;;;;;;
2022/08/08 10:08:42;;;;;;;;;;;;;;;10.34;100.00;100189.44;6215545;23;20410;-89
2022/08/08 10:11:07;;;;;;;;;;;;;;;10.41;100.00;100185.63;6186880;23;19927;-90
2022/08/08 10:17:24;;;;;;;;;;;;;;;10.27;100.00;100177.28;6215005;23;19918;-90
2022/08/08 10:23:10;;;;;;;;;;;;;;;10.46;100.00;100172.22;6206090;23;19992;-90
2022/08/08 10:25:38;;;;;;;;;;;;;;;10.43;100.00;100181.13;6211868;23;19999;-91
2022/08/08 10:30:52;;;;;;;;;;;;;;;10.35;100.00;100180.53;6234948;22;19931;-90
2022/08/08 10:33:55;;;;;;;;;;;;;;;10.32;100.00;100168.28;6222513;22;19948;-90
2022/08/08 10:36:30;;;;;;;;;;;;;;;10.22;100.00;100164.19;6188492;23;19916;-91
2022/08/08 10:38:57;;;;;;;;;;;;;;;10.16;100.00;100169.69;6188975;23;19939;-91
2022/08/08 10:47:15;;;;;;;;;;;;;;;10.24;100.00;100172.09;6237691;22;20136;-90
2022/08/08 10:52:46;;;;;;;;;;;;;;;10.45;100.00;100165.19;6198014;23;19911;-90
2022/08/08 10:55:13;;;;;;;;;;;;;;;10.26;100.00;100163.19;6242240;23;19990;-89
2022/08/08 10:57:50;;;;;;;;;;;;;;;10.21;100.00;100162.47;6243736;23;19912;-90
2022/08/08 11:00:25;;;;;;;;;;;;;;;10.39;100.00;100165.41;6245509;23;19907;-90
2022/08/08 11:02:51;;;;;;;;;;;;;;;10.22;100.00;100153.59;6245491;23;19922;-89
2022/08/08 11:11:14;;;;;;;;;;;;;;;10.36;100.00;100164.59;6212179;22;19998;-91
2022/08/08 11:13:40;;;;;;;;;;;;;;;10.21;100.00;100161.59;6246084;23;19950;-90
2022/08/08 11:16:06;;;;;;;;;;;;;;;10.27;100.00;100154.28;6245643;23;19920;-91
2022/08/08 11:18:50;;;;;;;;;;;;;;;;;;;;;
2022/08/08 11:21:15;;;;;;;;;;;;;;;10.29;100.00;100149.81;6247426;23;20006;-90
2022/08/08 11:24:49;;;;;;;;;;;;;;;10.36;100.00;100146.06;6245630;23;20323;-90
2022/08/08 11:26:50;;;;;;;;;;;;;;;10.39;100.00;100150.38;6223988;23;19907;-89
2022/08/08 11:29:16;;;;;;;;;;;;;;;10.44;100.00;100144.94;6247374;23;20271;-90
2022/08/08 11:31:46;;;;;;;;;;;;;;;10.24;100.00;100157.03;6247415;23;19912;-90
2022/08/08 11:34:11;;;;;;;;;;;;;;;10.39;100.00;100160.97;6219929;23;19908;-90
2022/08/08 11:36:37;;;;;;;;;;;;;;;10.50;100.00;100163.25;6246914;23;20075;-89
2022/08/08 11:39:03;;;;;;;;;;;;;;;10.30;100.00;100154.19;6245259;23;19916;-90
2022/08/08 11:41:28;;;;;;;;;;;;;;;10.43;100.00;100149.34;6243876;23;20239;-90
2022/08/08 11:43:54;;;;;;;;;;;;;;;10.32;100.00;100147.09;6247024;23;19990;-91
2022/08/08 11:52:15;;;;;;;;;;;;;;;10.39;100.00;100141.56;6245250;22;19931;-88
2022/08/08 11:54:42;;;;;;;;;;;;;;;10.19;100.00;100143.13;6219789;23;19911;-89
2022/08/08 11:57:09;;;;;;;;;;;;;;;10.27;100.00;100140.19;6219231;23;20665;-89
2022/08/08 11:59:35;;;;;;;;;;;;;;;10.32;100.00;100139.16;6219650;23;20247;-89
2022/08/08 12:02:05;;;;;;;;;;;;;;;10.17;100.00;100139.66;6247242;23;19918;-91
2022/08/08 12:04:30;;;;;;;;;;;;;;;10.34;100.00;100137.31;6220049;23;19912;-91
2022/08/08 12:07:03;;;;;;;;;;;;;;;10.43;100.00;100140.53;6220236;23;19923;-90
2022/08/08 12:09:28;;;;;;;;;;;;;;;10.38;100.00;100122.16;6220006;23;19916;-90
2022/08/08 12:11:53;;;;;;;;;;;;;;;10.39;100.00;100134.50;6245220;23;19965;-90
2022/08/08 12:16:52;;;;;;;;;;;;;;;10.39;100.00;100120.38;6246647;23;19924;-90
2022/08/08 12:19:17;;;;;;;;;;;;;;;10.33;100.00;100129.41;6220075;23;20006;-89
2022/08/08 12:21:42;;;;;;;;;;;;;;;10.61;100.00;100123.97;6219770;23;20005;-89
2022/08/08 12:24:10;;;;;;;;;;;;;;;10.38;100.00;100116.84;6246680;23;19994;-89
2022/08/08 12:26:37;;;;;;;;;;;;;;;10.34;100.00;100110.81;6218431;23;19912;-91
2022/08/08 12:29:19;;;;;;;;;;;;;;;10.50;100.00;100112.91;6220134;23;19912;-91
2022/08/08 12:31:47;;;;;;;;;;;;;;;10.45;100.00;100112.19;6246705;23;19950;-91
2022/08/08 12:34:13;;;;;;;;;;;;;;;10.34;100.00;100116.13;6219768;23;20216;-90
2022/08/08 12:36:40;;;;;;;;;;;;;;;10.56;100.00;100110.00;6246310;23;19927;-89
2022/08/08 12:39:05;;;;;;;;;;;;;;;10.52;100.00;100121.66;6219667;23;20434;-89
2022/08/08 12:41:41;;;;;;;;;;;;;;;;;;;;;
2022/08/08 12:44:08;;;;;;;;;;;;;;;10.51;100.00;100110.22;6246271;23;19998;-89
2022/08/08 12:46:52;;;;;;;;;;;;;;;10.51;100.00;100106.66;6219261;23;19926;-89
2022/08/08 12:49:25;;;;;;;;;;;;;;;10.42;100.00;100107.00;6219631;23;20312;-90
2022/08/08 12:51:51;;;;;;;;;;;;;;;10.51;100.00;100110.22;6244569;23;20243;-89
2022/08/08 12:54:21;;;;;;;;;;;;;;;10.48;100.00;100112.09;6244671;23;19939;-89
2022/08/08 12:56:46;;;;;;;;;;;;;;;10.41;100.00;100111.44;6217875;23;19911;-91
2022/08/08 12:59:16;;;;;;;;;;;;;;;10.43;100.00;100114.03;6219170;23;20346;-90
2022/08/08 13:01:48;;;;;;;;;;;;;;;10.52;100.00;100108.41;6219389;23;19912;-87
2022/08/08 13:04:17;;;;;;;;;;;;;;;10.44;100.00;100097.25;6219293;23;19916;-90
2022/08/08 13:07:13;;;;;;;;;;;;;;;10.45;100.00;100099.84;6218893;23;19919;-89
2022/08/08 13:09:41;;;;;;;;;;;;;;;10.68;100.00;100100.75;6198893;23;19994;-88
2022/08/08 13:12:28;;;;;;;;;;;;;;;10.49;100.00;100095.28;6243657;23;19962;-90
2022/08/08 13:14:55;;;;;;;;;;;;;;;10.42;100.00;100097.28;6243544;23;19994;-89
2022/08/08 13:17:22;;;;;;;;;;;;;;;10.56;100.00;100096.75;6246148;23;19916;-89
2022/08/08 13:19:48;;;;;;;;;;;;;;;10.43;100.00;100099.00;6244426;23;19916;-90
2022/08/08 13:22:17;;;;;;;;;;;;;;;10.35;100.00;100103.72;6218838;23;20268;-90
2022/08/08 13:24:43;;;;;;;;;;;;;;;10.53;100.00;100095.09;6218642;23;19915;-89
2022/08/08 13:27:09;;;;;;;;;;;;;;;10.50;100.00;100086.41;6218154;23;19934;-90
2022/08/08 13:29:38;;;;;;;;;;;;;;;10.34;100.00;100094.94;6218963;23;19923;-90
2022/08/08 13:32:46;;;;;;;;;;;;;;;10.60;100.00;100094.88;6245895;23;19915;-89
2022/08/08 13:35:11;;;;;;;;;;;;;;;10.58;100.00;100091.41;6245090;23;19918;-90
2022/08/08 13:37:38;;;;;;;;;;;;;;;10.46;100.00;100087.44;6245617;23;20240;-89
2022/08/08 13:40:04;;;;;;;;;;;;;;;10.44;100.00;100089.28;6242628;23;19920;-89
2022/08/08 13:42:29;;;;;;;;;;;;;;;10.63;100.00;100087.66;6245747;23;20374;-89
2022/08/08 13:44:56;;;;;;;;;;;;;;;10.46;100.00;100082.13;6245764;23;19915;-88
2022/08/08 13:47:22;;;;;;;;;;;;;;;10.41;100.00;100077.00;6243963;23;19912;-88
2022/08/08 13:50:04;;;;;;;;;;;;;;;10.50;100.00;100074.03;6244236;23;20316;-88
2022/08/08 13:52:29;;;;;;;;;;;;;;;10.41;100.00;100066.41;6218851;23;19918;-89
2022/08/08 13:54:56;;;;;;;;;;;;;;;10.43;100.00;100074.31;6243931;23;19919;-90
2022/08/08 13:57:25;;;;;;;;;;;;;;;10.50;100.00;100066.06;6219055;23;19923;-88
2022/08/08 13:59:50;;;;;;;;;;;;;;;10.45;100.00;100070.69;6244218;23;19915;-88
2022/08/08 14:02:23;;;;;;;;;;;;;;;10.40;100.00;100080.56;6219008;23;20337;-90
2022/08/08 14:05:15;;;;;;;;;;;;;;;10.48;100.00;100067.03;6243796;23;19912;-91
2022/08/08 14:07:45;;;;;;;;;;;;;;;10.51;100.00;100070.47;6245977;23;19915;-91
2022/08/08 14:13:15;;;;;;;;;;;;;;;10.36;100.00;100061.28;6243127;22;19962;-89
2022/08/08 14:15:40;;;;;;;;;;;;;;;10.48;100.00;100062.63;6245217;23;19967;-88
2022/08/08 14:18:06;;;;;;;;;;;;;;;10.34;100.00;100063.13;6234769;23;19919;-89
2022/08/08 14:20:38;;;;;;;;;;;;;;;10.35;100.00;100059.59;6243715;23;19907;-89
2022/08/08 14:23:07;;;;;;;;;;;;;;;10.42;100.00;100056.69;6244156;23;20307;-90
2022/08/08 14:28:51;;;;;;;;;;;;;;;10.18;100.00;100054.03;6228494;23;19912;-90
2022/08/08 14:31:17;;;;;;;;;;;;;;;10.40;100.00;100055.88;6245674;23;19915;-89
2022/08/08 14:33:42;;;;;;;;;;;;;;;10.33;100.00;100048.16;6245719;23;19908;-90
2022/08/08 14:36:14;;;;;;;;;;;;;;;10.30;100.00;100050.88;6244657;23;20309;-90
2022/08/08 14:38:40;;;;;;;;;;;;;;;10.39;100.00;100046.19;6244881;23;19911;-89
2022/08/08 14:41:25;;;;;;;;;;;;;;;10.27;100.00;100040.41;6243790;23;19966;-88
2022/08/08 14:43:55;;;;;;;;;;;;;;;10.28;100.00;100047.44;6243007;23;19915;-87
2022/08/08 14:46:24;;;;;;;;;;;;;;;10.41;100.00;100041.72;6244792;23;19922;-89
2022/08/08 14:48:49;;;;;;;;;;;;;;;10.49;100.00;100037.84;6227788;22;19924;-85
2022/08/08 14:51:17;;;;;;;;;;;;;;;10.31;100.00;100042.03;6188475;23;19992;-87
2022/08/08 14:53:54;;;;;;;;;;;;;;;10.81;100.00;100045.47;6188482;23;20271;-91
2022/08/08 14:56:19;;;;;;;;;;;;;;;10.95;100.00;100045.78;6186988;23;20276;-89
2022/08/08 14:58:45;;;;;;;;;;;;;;;11.41;100.00;100035.06;6215002;23;19912;-85
2022/08/08 15:01:10;;;;;;;;;;;;;;;10.80;100.00;100041.09;6190240;23;20324;-84
2022/08/08 15:03:36;;;;;;;;;;;;;;;10.79;100.00;100047.31;6188080;23;19912;-88
2022/08/08 15:06:01;;;;;;;;;;;;;;;10.39;100.00;100043.53;6187969;23;19948;-88
2022/08/08 15:08:28;;;;;;;;;;;;;;;10.12;100.00;100041.00;6214517;23;19926;-88
2022/08/08 15:10:54;;;;;;;;;;;;;;;10.33;100.00;100045.50;6213143;23;19918;-84
2022/08/08 15:13:19;;;;;;;;;;;;;;;10.06;100.00;100044.72;6214912;23;19999;-89
2022/08/08 15:15:44;;;;;;;;;;;;;;;10.11;100.00;100039.25;6187762;23;19919;-84
2022/08/08 15:18:09;;;;;;;;;;;;;;;10.18;100.00;100031.03;6214604;23;19919;-85
2022/08/08 15:20:35;;;;;;;;;;;;;;;9.87;100.00;100031.28;6187803;23;19918;-87
2022/08/08 15:23:01;;;;;;;;;;;;;;;10.13;100.00;100032.13;6214530;23;20243;-86
2022/08/08 15:25:26;;;;;;;;;;;;;;;10.07;100.00;100034.97;6212414;23;19923;-85
2022/08/08 15:27:52;;;;;;;;;;;;;;;9.87;100.00;100036.59;6213573;23;20367;-86
2022/08/08 15:30:19;;;;;;;;;;;;;;;10.06;100.00;100035.94;6187953;23;19983;-87
2022/08/08 15:32:45;;;;;;;;;;;;;;;10.00;100.00;100037.88;6213209;23;20324;-86
2022/08/08 15:35:10;;;;;;;;;;;;;;;9.78;100.00;100037.78;6214360;23;19916;-87
2022/08/08 15:37:36;;;;;;;;;;;;;;;10.05;100.00;100028.91;6215079;23;20235;-91
2022/08/08 15:40:02;;;;;;;;;;;;;;;9.94;100.00;100034.56;6214231;23;19915;-87
2022/08/08 15:42:27;;;;;;;;;;;;;;;9.83;100.00;100032.34;6215154;23;19912;-88
2022/08/08 15:44:53;;;;;;;;;;;;;;;10.05;100.00;100028.91;6215005;23;19919;-89
2022/08/08 15:47:19;;;;;;;;;;;;;;;9.73;100.00;100026.50;6215826;23;19919;-92
2022/08/08 15:49:45;;;;;;;;;;;;;;;9.88;100.00;100030.38;6189380;23;19995;-90
2022/08/08 15:52:12;;;;;;;;;;;;;;;9.95;100.00;100034.53;6217724;23;19983;-92
2022/08/08 15:54:38;;;;;;;;;;;;;;;9.76;100.00;100031.66;6215889;23;19957;-93
2022/08/08 15:57:03;;;;;;;;;;;;;;;9.89;100.00;100034.78;6213589;23;19999;-88
2022/08/08 15:59:28;;;;;;;;;;;;;;;9.78;100.00;100027.22;6217522;23;19918;-88
2022/08/08 16:01:54;;;;;;;;;;;;;;;9.73;100.00;100037.09;6217507;23;19916;-85
2022/08/08 16:04:19;;;;;;;;;;;;;;;9.95;100.00;100029.22;6218066;23;19988;-91
2022/08/08 16:06:45;;;;;;;;;;;;;;;9.78;100.00;100034.25;6217256;23;20399;-91
2022/08/08 16:09:10;;;;;;;;;;;;;;;9.81;100.00;100027.09;6217244;23;20328;-92
2022/08/08 16:11:36;;;;;;;;;;;;;;;9.94;100.00;100032.81;6215047;23;19916;-86
2022/08/08 16:14:02;;;;;;;;;;;;;;;9.76;100.00;100033.47;6215959;23;19939;-86
2022/08/08 16:16:27;;;;;;;;;;;;;;;9.97;100.00;100029.16;6215738;23;19919;-84
2022/08/08 16:18:52;;;;;;;;;;;;;;;10.00;100.00;100027.28;6215847;23;19982;-91
2022/08/08 16:21:17;;;;;;;;;;;;;;;9.80;100.00;100019.22;6189318;23;19912;-86
2022/08/08 16:23:43;;;;;;;;;;;;;;;10.04;100.00;100017.44;6216114;23;20336;-85
2022/08/08 16:26:08;;;;;;;;;;;;;;;9.95;100.00;100018.63;6188756;23;19912;-85
2022/08/08 16:28:33;;;;;;;;;;;;;;;9.80;100.00;100021.84;6216573;23;19912;-88
2022/08/08 16:30:58;;;;;;;;;;;;;;;10.06;100.00;100020.91;6216285;23;19916;-85
2022/08/08 16:33:24;;;;;;;;;;;;;;;9.95;100.00;100018.63;6190142;23;20256;-86
2022/08/08 16:35:50;;;;;;;;;;;;;;;9.84;100.00;100018.16;6216375;23;19916;-85
2022/08/08 16:38:16;;;;;;;;;;;;;;;10.11;100.00;100018.09;6216327;23;19951;-86
2022/08/08 16:40:41;;;;;;;;;;;;;;;9.99;100.00;100017.63;6189043;23;20347;-87
2022/08/08 16:43:07;;;;;;;;;;;;;;;9.98;100.00;100015.88;6216167;23;19916;-87
2022/08/08 16:45:38;;;;;;;;;;;;;;;10.13;100.00;100018.88;6216022;23;19919;-92
2022/08/08 16:48:03;;;;;;;;;;;;;;;9.95;100.00;100013.34;6190129;23;20030;-91
2022/08/08 16:50:29;;;;;;;;;;;;;;;10.09;100.00;100017.28;6215812;23;19959;-87
2022/08/08 16:52:55;;;;;;;;;;;;;;;10.03;100.00;100010.41;6216134;23;19919;-84
2022/08/08 16:55:21;;;;;;;;;;;;;;;9.92;100.00;100020.53;6188072;23;19953;-84
2022/08/08 16:57:46;;;;;;;;;;;;;;;10.06;100.00;100010.31;6189327;23;19916;-89
2022/08/08 17:00:12;;;;;;;;;;;;;;;10.13;100.00;100008.28;6215733;23;19912;-83
2022/08/08 17:02:37;;;;;;;;;;;;;;;9.93;100.00;100015.19;6189997;23;19916;-89
2022/08/08 17:05:03;;;;;;;;;;;;;;;10.11;100.00;100020.72;6216293;23;19907;-91
2022/08/08 17:07:28;;;;;;;;;;;;;;;10.10;100.00;100017.22;6216212;23;20320;-88
2022/08/08 17:09:53;;;;;;;;;;;;;;;9.92;100.00;100018.75;6214449;23;19912;-89
2022/08/08 17:12:19;;;;;;;;;;;;;;;10.15;100.00;100012.63;6215913;23;20324;-90
2022/08/08 17:14:46;;;;;;;;;;;;;;;10.08;100.00;100018.19;6216021;23;19912;-90
2022/08/08 17:17:12;;;;;;;;;;;;;;;9.91;100.00;100014.38;6216068;23;19990;-90
2022/08/08 17:19:37;;;;;;;;;;;;;;;10.18;100.00;100015.16;6216275;23;20366;-89
2022/08/08 17:22:03;;;;;;;;;;;;;;;10.08;100.00;100019.03;6216583;23;19912;-89
2022/08/08 17:24:29;;;;;;;;;;;;;;;10.02;100.00;100018.41;6216319;23;19927;-85
2022/08/08 17:26:54;;;;;;;;;;;;;;;10.21;100.00;100013.31;6213261;23;19912;-85
2022/08/08 17:29:20;;;;;;;;;;;;;;;10.12;100.00;100017.16;6215708;23;19955;-88
2022/08/08 17:31:45;;;;;;;;;;;;;;;10.08;100.00;100023.50;6215657;23;19908;-84
2022/08/08 17:34:10;;;;;;;;;;;;;;;10.28;100.00;100020.09;6215301;23;19927;-84
2022/08/08 17:36:36;;;;;;;;;;;;;;;10.09;100.00;100022.56;6215856;23;19912;-83
2022/08/08 17:39:02;;;;;;;;;;;;;;;10.13;100.00;100024.16;6215312;23;19918;-84
2022/08/08 17:41:28;;;;;;;;;;;;;;;10.29;100.00;100024.47;6214450;23;19911;-87
2022/08/08 17:43:53;;;;;;;;;;;;;;;10.12;100.00;100033.06;6188560;23;19922;-89
2022/08/08 17:46:37;;;;;;;;;;;;;;;10.20;100.00;100032.78;6215349;23;19916;-83
2022/08/08 17:49:03;;;;;;;;;;;;;;;10.30;100.00;100035.00;6188789;23;20283;-83
2022/08/08 17:51:29;;;;;;;;;;;;;;;10.13;100.00;100045.34;6214866;23;20396;-88
2022/08/08 17:53:54;;;;;;;;;;;;;;;9.96;100.00;100046.84;6215073;23;19943;-87
2022/08/08 17:56:19;;;;;;;;;;;;;;;10.24;100.00;100055.56;6187081;23;20321;-84
2022/08/08 17:58:44;;;;;;;;;;;;;;;10.13;100.00;100048.88;6215041;23;19912;-86
2022/08/08 18:01:10;;;;;;;;;;;;;;;10.11;100.00;100052.50;6214973;23;19920;-86
2022/08/08 18:03:35;;;;;;;;;;;;;;;10.27;100.00;100053.66;6215112;23;19998;-89
2022/08/08 18:06:00;;;;;;;;;;;;;;;10.10;100.00;100056.06;6215125;23;20248;-83
2022/08/08 18:08:26;;;;;;;;;;;;;;;10.18;100.00;100057.53;6214990;23;19912;-87
2022/08/08 18:10:51;;;;;;;;;;;;;;;10.20;100.00;100060.09;6187375;23;19912;-83
2022/08/08 18:13:16;;;;;;;;;;;;;;;10.09;100.00;100067.59;6188223;23;19919;-84
2022/08/08 18:15:43;;;;;;;;;;;;;;;10.23;100.00;100057.34;6215301;23;20018;-90
2022/08/08 18:18:08;;;;;;;;;;;;;;;10.25;100.00;100054.66;6215058;23;20343;-86
2022/08/08 18:20:33;;;;;;;;;;;;;;;10.10;100.00;100058.69;6215175;23;19912;-88
2022/08/08 18:22:59;;;;;;;;;;;;;;;10.27;100.00;100071.34;6215201;23;20344;-84
2022/08/08 18:25:24;;;;;;;;;;;;;;;10.25;100.00;100074.03;6213856;23;19916;-84
2022/08/08 18:27:49;;;;;;;;;;;;;;;10.15;100.00;100075.31;6215729;23;19912;-84
2022/08/08 18:30:14;;;;;;;;;;;;;;;10.32;100.00;100072.03;6215382;23;19916;-84
2022/08/08 18:32:40;;;;;;;;;;;;;;;10.15;100.00;100081.47;6215208;23;19986;-85
2022/08/08 18:35:05;;;;;;;;;;;;;;;10.08;100.00;100087.03;6215244;23;19912;-89
2022/08/08 18:37:31;;;;;;;;;;;;;;;10.27;100.00;100082.78;6215433;23;19912;-89
2022/08/08 18:39:56;;;;;;;;;;;;;;;10.18;100.00;100085.78;6213515;23;19987;-84
2022/08/08 18:42:21;;;;;;;;;;;;;;;10.13;100.00;100090.38;6214810;23;19916;-86
2022/08/08 18:44:47;;;;;;;;;;;;;;;10.31;100.00;100089.72;6214785;23;20364;-84
2022/08/08 18:47:13;;;;;;;;;;;;;;;10.22;100.00;100095.34;6214764;23;19908;-86
2022/08/08 18:49:38;;;;;;;;;;;;;;;10.13;100.00;100106.25;6213919;23;19922;-87
2022/08/08 18:52:03;;;;;;;;;;;;;;;10.30;100.00;100103.84;6215099;23;19918;-91
2022/08/08 18:54:29;;;;;;;;;;;;;;;10.14;100.00;100108.84;6214333;23;19919;-84
2022/08/08 18:56:56;;;;;;;;;;;;;;;10.17;100.00;100107.88;6212670;23;19912;-87
2022/08/08 18:59:22;;;;;;;;;;;;;;;10.42;100.00;100117.59;6214731;23;19923;-87
2022/08/08 19:01:47;;;;;;;;;;;;;;;10.20;100.00;100115.72;6214865;23;19916;-91
2022/08/08 19:04:12;;;;;;;;;;;;;;;10.22;100.00;100115.66;6214519;23;20502;-84
2022/08/08 19:06:37;;;;;;;;;;;;;;;10.35;100.00;100116.97;6214635;23;19912;-83
2022/08/08 19:09:03;;;;;;;;;;;;;;;10.09;100.00;100125.84;6214760;23;19947;-83
2022/08/08 19:11:28;;;;;;;;;;;;;;;10.30;100.00;100125.03;6213377;23;19916;-87
2022/08/08 19:13:55;;;;;;;;;;;;;;;10.23;100.00;100128.84;6214411;23;19912;-83
2022/08/08 19:16:21;;;;;;;;;;;;;;;10.14;100.00;100134.47;6214434;23;19920;-88
2022/08/08 19:18:48;;;;;;;;;;;;;;;10.20;100.00;100130.75;6215034;23;19916;-91
2022/08/08 19:21:13;;;;;;;;;;;;;;;10.29;100.00;100141.00;6214775;23;19912;-84
2022/08/08 19:23:38;;;;;;;;;;;;;;;10.15;100.00;100138.88;6214861;23;20334;-85
2022/08/08 19:26:04;;;;;;;;;;;;;;;10.19;100.00;100145.75;6188883;23;19912;-91
2022/08/08 19:28:29;;;;;;;;;;;;;;;10.29;100.00;100149.81;6190422;23;19920;-86
2022/08/08 19:30:55;;;;;;;;;;;;;;;10.14;100.00;100153.88;6217011;23;19912;-86
2022/08/08 19:33:22;;;;;;;;;;;;;;;10.22;100.00;100156.25;6190172;23;19912;-89
2022/08/08 19:35:47;;;;;;;;;;;;;;;10.33;100.00;100155.91;6190123;23;19965;-86
2022/08/08 19:38:13;;;;;;;;;;;;;;;10.17;100.00;100163.50;6216469;23;19916;-85
2022/08/08 19:40:39;;;;;;;;;;;;;;;10.35;100.00;100167.28;6189124;23;19923;-88
2022/08/08 19:43:06;;;;;;;;;;;;;;;10.26;100.00;100163.19;6189659;23;19912;-86
2022/08/08 19:45:32;;;;;;;;;;;;;;;10.04;100.00;100162.19;6190066;23;19911;-87
2022/08/08 19:47:58;;;;;;;;;;;;;;;10.21;100.00;100166.88;6216555;23;20347;-86
2022/08/08 19:50:23;;;;;;;;;;;;;;;10.17;100.00;100167.00;6216153;23;19924;-92
2022/08/08 19:52:49;;;;;;;;;;;;;;;10.13;100.00;100173.34;6216821;23;19990;-84
2022/08/08 19:55:14;;;;;;;;;;;;;;;10.29;100.00;100178.06;6215075;23;19919;-85
2022/08/08 19:57:40;;;;;;;;;;;;;;;10.17;100.00;100176.72;6216351;23;19927;-83
2022/08/08 20:00:07;;;;;;;;;;;;;;;10.13;100.00;100181.28;6216154;23;19922;-85
2022/08/08 20:02:33;;;;;;;;;;;;;;;10.25;100.00;100184.41;6189983;23;19916;-87
2022/08/08 20:04:58;;;;;;;;;;;;;;;10.13;100.00;100196.28;6216623;23;19912;-85
2022/08/08 20:07:23;;;;;;;;;;;;;;;10.18;100.00;100194.38;6216137;23;19999;-89
2022/08/08 20:09:49;;;;;;;;;;;;;;;10.18;100.00;100197.00;6214938;23;19916;-86
2022/08/08 20:12:14;;;;;;;;;;;;;;;9.96;100.00;100199.53;6189673;23;20209;-86
2022/08/08 20:14:39;;;;;;;;;;;;;;;10.18;100.00;100199.66;6216302;23;19970;-87
2022/08/08 20:17:04;;;;;;;;;;;;;;;10.09;100.00;100205.25;6216351;23;19947;-85
2022/08/08 20:19:30;;;;;;;;;;;;;;;9.91;100.00;100204.97;6216345;23;19958;-90
2022/08/08 20:21:56;;;;;;;;;;;;;;;10.12;100.00;100210.47;6216172;23;19912;-85
2022/08/08 20:24:21;;;;;;;;;;;;;;;10.05;100.00;100207.16;6189921;23;19918;-88